createdAt,value
2023-05-12T00:01:20.144Z,10.00
2023-05-12T00:03:54.340Z,9.00
2023-05-12T00:06:27.974Z,10.10
2023-05-12T00:09:01.835Z,10.40
2023-05-12T00:11:35.501Z,10.80
2023-05-12T00:14:09.511Z,9.90
2023-05-12T00:16:43.749Z,11.10
2023-05-12T00:19:17.391Z,10.10
2023-05-12T00:21:51.430Z,9.70
2023-05-12T00:24:24.941Z,12.10
2023-05-12T00:26:58.441Z,9.70
2023-05-12T00:29:32.167Z,10.20
2023-05-12T00:32:05.908Z,10.20
2023-05-12T00:34:39.338Z,9.90
2023-05-12T00:37:13.596Z,10.30
2023-05-12T00:39:47.055Z,11.70
2023-05-12T00:42:20.728Z,11.40
2023-05-12T00:44:54.176Z,10.90
2023-05-12T00:47:28.058Z,11.10
2023-05-12T00:50:01.618Z,9.60
2023-05-12T00:52:35.352Z,10.40
2023-05-12T00:55:10.545Z,11.00
2023-05-12T00:57:44.338Z,9.70
2023-05-12T01:00:20.227Z,11.80
2023-05-12T01:02:54.724Z,11.30
2023-05-12T01:05:32.060Z,11.00
2023-05-12T01:08:07.897Z,11.10
2023-05-12T01:10:47.465Z,11.20
2023-05-12T01:13:23.039Z,11.90
2023-05-12T01:15:57.986Z,12.00
2023-05-12T01:18:34.085Z,11.60
2023-05-12T01:21:08.338Z,11.30
2023-05-12T01:23:48.581Z,11.40
2023-05-12T01:26:22.590Z,9.90
2023-05-12T01:28:57.885Z,9.70
2023-05-12T01:31:33.733Z,10.00
2023-05-12T01:34:07.466Z,9.20
2023-05-12T01:36:40.816Z,8.40
2023-05-12T01:39:14.581Z,9.10
2023-05-12T01:41:48.223Z,10.10
2023-05-12T01:44:22.226Z,10.90
2023-05-12T01:46:56.553Z,11.80
2023-05-12T01:49:31.100Z,11.50
2023-05-12T01:52:04.988Z,10.40
2023-05-12T01:54:38.707Z,10.60
2023-05-12T01:57:12.541Z,11.40
2023-05-12T01:59:46.031Z,11.20
2023-05-12T02:02:20.981Z,11.20
2023-05-12T02:04:55.067Z,10.10
2023-05-12T02:07:28.530Z,11.50
2023-05-12T02:10:02.094Z,10.70
2023-05-12T02:12:35.830Z,11.60
2023-05-12T02:15:10.973Z,11.40
2023-05-12T02:17:48.581Z,11.90
2023-05-12T02:20:22.873Z,11.50
2023-05-12T02:22:56.565Z,11.50
2023-05-12T02:25:30.294Z,11.60
2023-05-12T02:28:04.342Z,11.40
2023-05-12T02:30:38.095Z,11.60
2023-05-12T02:33:12.701Z,10.20
2023-05-12T02:35:47.307Z,11.90
2023-05-12T02:38:21.063Z,11.10
2023-05-12T02:40:55.252Z,10.60
2023-05-12T02:43:29.620Z,11.30
2023-05-12T02:46:03.070Z,11.50
2023-05-12T02:48:37.209Z,11.30
2023-05-12T02:51:10.863Z,10.80
2023-05-12T02:53:44.299Z,11.60
2023-05-12T02:56:19.016Z,11.70
2023-05-12T02:58:52.503Z,12.50
2023-05-12T03:01:26.201Z,11.60
2023-05-12T03:03:59.705Z,12.00
2023-05-12T03:06:33.519Z,11.50
2023-05-12T03:09:07.137Z,11.70
2023-05-12T03:11:40.555Z,11.90
2023-05-12T03:14:14.063Z,12.20
2023-05-12T03:16:47.935Z,12.40
2023-05-12T03:19:21.560Z,12.10
2023-05-12T03:21:57.313Z,12.10
2023-05-12T03:24:31.505Z,11.50
2023-05-12T03:27:06.032Z,12.40
2023-05-12T03:29:39.638Z,12.20
2023-05-12T03:32:13.245Z,12.00
2023-05-12T03:34:46.798Z,12.60
2023-05-12T03:37:20.434Z,11.20
2023-05-12T03:39:56.337Z,12.90
2023-05-12T03:42:30.214Z,11.40
2023-05-12T03:45:03.468Z,12.10
2023-05-12T03:47:37.197Z,11.00
2023-05-12T03:50:13.109Z,12.00
2023-05-12T03:52:46.853Z,12.60
2023-05-12T03:55:20.939Z,12.60
2023-05-12T03:57:54.300Z,11.60
2023-05-12T04:00:27.881Z,11.70
2023-05-12T04:03:01.569Z,11.00
2023-05-12T04:05:35.338Z,12.40
2023-05-12T04:08:09.148Z,12.50
2023-05-12T04:10:43.901Z,12.70
2023-05-12T04:13:18.128Z,11.50
2023-05-12T04:15:51.662Z,12.30
2023-05-12T04:18:25.646Z,12.10
2023-05-12T04:20:59.552Z,10.60
2023-05-12T04:23:33.138Z,12.30
2023-05-12T04:26:08.453Z,11.00
2023-05-12T04:28:42.083Z,11.60
2023-05-12T04:31:16.125Z,12.00
2023-05-12T04:33:50.106Z,12.10
2023-05-12T04:36:23.696Z,12.20
2023-05-12T04:38:57.526Z,10.90
2023-05-12T04:41:31.535Z,11.30
2023-05-12T04:44:05.478Z,11.10
2023-05-12T04:46:39.669Z,12.10
2023-05-12T04:49:13.582Z,12.20
2023-05-12T04:51:47.057Z,11.40
2023-05-12T04:54:21.006Z,11.90
2023-05-12T04:56:54.950Z,10.50
2023-05-12T04:59:28.939Z,11.80
2023-05-12T05:02:02.706Z,11.90
2023-05-12T05:04:36.265Z,10.50
2023-05-12T05:07:10.660Z,10.60
2023-05-12T05:09:44.062Z,10.80
2023-05-12T05:12:17.703Z,11.20
2023-05-12T05:14:51.262Z,10.70
2023-05-12T05:17:25.088Z,11.10
2023-05-12T05:19:59.900Z,11.70
2023-05-12T05:22:39.842Z,10.10
2023-05-12T05:25:15.357Z,10.60
2023-05-12T05:27:49.031Z,10.70
2023-05-12T05:30:22.726Z,10.40
2023-05-12T05:32:56.614Z,11.00
2023-05-12T05:35:30.445Z,10.30
2023-05-12T05:38:05.823Z,10.70
2023-05-12T05:40:52.282Z,10.60
2023-05-12T05:43:28.425Z,10.40
2023-05-12T05:46:02.074Z,10.50
2023-05-12T05:48:36.749Z,10.90
2023-05-12T05:51:11.818Z,10.90
2023-05-12T05:53:45.906Z,10.40
2023-05-12T05:56:20.163Z,10.30
2023-05-12T05:58:53.842Z,10.00
2023-05-12T06:01:27.424Z,9.90
2023-05-12T06:04:02.316Z,9.00
2023-05-12T06:06:35.989Z,8.50
2023-05-12T06:09:12.502Z,9.40
2023-05-12T06:11:46.434Z,9.00
2023-05-12T06:14:21.780Z,8.90
2023-05-12T06:16:55.626Z,9.00
2023-05-12T06:19:30.774Z,9.30
2023-05-12T06:22:04.362Z,9.10
2023-05-12T06:24:37.789Z,8.40
2023-05-12T06:27:11.721Z,8.50
2023-05-12T06:29:45.175Z,8.30
2023-05-12T06:32:18.832Z,8.80
2023-05-12T06:34:52.564Z,7.30
2023-05-12T06:37:25.900Z,7.70
2023-05-12T06:40:01.727Z,8.60
2023-05-12T06:42:35.321Z,9.00
2023-05-12T06:45:14.933Z,8.70
2023-05-12T06:47:48.134Z,8.70
2023-05-12T06:50:21.975Z,6.60
2023-05-12T06:52:58.608Z,8.70
2023-05-12T06:55:32.022Z,9.00
2023-05-12T06:58:06.074Z,8.80
2023-05-12T07:00:39.431Z,8.00
2023-05-12T07:03:12.910Z,7.80
2023-05-12T07:05:46.643Z,7.90
2023-05-12T07:08:21.014Z,9.00
2023-05-12T07:10:54.879Z,7.80
2023-05-12T07:13:29.489Z,8.30
2023-05-12T07:16:02.842Z,7.10
2023-05-12T07:18:36.679Z,7.80
2023-05-12T07:21:10.847Z,8.00
2023-05-12T07:23:44.365Z,7.80
2023-05-12T07:26:18.866Z,8.00
2023-05-12T07:28:52.208Z,7.80
2023-05-12T07:31:25.543Z,7.60
2023-05-12T07:33:59.076Z,8.80
2023-05-12T07:36:32.997Z,7.30
2023-05-12T07:39:07.286Z,7.50
2023-05-12T07:41:40.764Z,7.10
2023-05-12T07:44:14.233Z,6.90
2023-05-12T07:46:48.056Z,7.40
2023-05-12T07:49:22.131Z,7.40
2023-05-12T07:51:55.804Z,7.20
2023-05-12T07:54:29.616Z,7.40
2023-05-12T07:57:03.096Z,7.50
2023-05-12T07:59:36.256Z,6.80
2023-05-12T08:02:10.380Z,7.10
2023-05-12T08:04:44.535Z,7.50
2023-05-12T08:07:18.416Z,6.40
2023-05-12T08:09:52.490Z,6.80
2023-05-12T08:12:27.109Z,7.30
2023-05-12T08:15:00.513Z,6.30
2023-05-12T08:17:33.862Z,6.80
2023-05-12T08:20:09.284Z,7.90
2023-05-12T08:22:42.391Z,6.80
2023-05-12T08:25:16.493Z,6.60
2023-05-12T08:27:49.879Z,6.40
2023-05-12T08:30:23.404Z,6.80
2023-05-12T08:32:57.933Z,6.10
2023-05-12T08:35:31.868Z,6.20
2023-05-12T08:38:05.508Z,6.00
2023-05-12T08:40:48.811Z,6.70
2023-05-12T08:43:29.860Z,6.10
2023-05-12T08:46:03.514Z,5.90
2023-05-12T08:48:39.986Z,6.20
2023-05-12T08:51:14.754Z,5.40
2023-05-12T08:53:50.203Z,5.80
2023-05-12T08:59:02.493Z,5.80
2023-05-12T09:01:38.243Z,6.20
2023-05-12T09:04:12.505Z,5.70
2023-05-12T09:06:47.097Z,5.00
2023-05-12T09:09:22.102Z,5.90
2023-05-12T09:12:00.627Z,5.50
2023-05-12T09:14:39.369Z,5.30
2023-05-12T09:17:14.331Z,4.80
2023-05-12T09:19:47.654Z,5.20
2023-05-12T09:22:29.191Z,4.60
2023-05-12T09:25:02.669Z,4.30
2023-05-12T09:27:36.499Z,5.50
2023-05-12T09:30:12.206Z,4.10
2023-05-12T09:32:46.014Z,5.20
2023-05-12T09:35:19.664Z,4.80
2023-05-12T09:37:53.705Z,5.00
2023-05-12T09:40:27.270Z,4.90
2023-05-12T09:43:00.985Z,4.50
2023-05-12T09:45:37.534Z,4.90
2023-05-12T09:48:14.817Z,5.10
2023-05-12T09:50:50.143Z,4.90
2023-05-12T09:53:23.473Z,4.70
2023-05-12T09:55:56.738Z,4.50
2023-05-12T09:58:31.554Z,4.60
2023-05-12T10:01:21.417Z,4.80
2023-05-12T10:03:57.234Z,4.50
2023-05-12T10:06:32.381Z,4.80
2023-05-12T10:09:12.762Z,4.10
2023-05-12T10:11:46.814Z,4.00
2023-05-12T10:14:20.645Z,4.10
2023-05-12T10:16:55.243Z,5.00
2023-05-12T10:19:30.214Z,4.10
2023-05-12T10:22:04.577Z,5.00
2023-05-12T10:24:39.280Z,4.10
2023-05-12T10:27:13.825Z,4.20
2023-05-12T10:29:49.304Z,4.20
2023-05-12T10:32:24.096Z,4.50
2023-05-12T10:34:58.974Z,4.40
2023-05-12T10:37:32.834Z,4.20
2023-05-12T10:40:07.802Z,4.20
2023-05-12T10:42:45.161Z,4.40
2023-05-12T10:45:22.367Z,4.60
2023-05-12T10:48:06.113Z,4.10
2023-05-12T10:50:39.989Z,4.40
2023-05-12T10:53:14.643Z,4.10
2023-05-12T10:55:52.877Z,4.20
2023-05-12T10:58:27.020Z,4.70
2023-05-12T11:01:08.717Z,4.20
2023-05-12T11:03:43.721Z,4.70
2023-05-12T11:06:22.753Z,4.20
2023-05-12T11:08:56.930Z,4.20
2023-05-12T11:11:32.347Z,4.70
2023-05-12T11:14:06.002Z,4.30
2023-05-12T11:16:47.239Z,4.20
2023-05-12T11:19:21.730Z,4.30
2023-05-12T11:21:55.821Z,4.40
2023-05-12T11:24:29.343Z,4.30
2023-05-12T11:27:02.735Z,4.10
2023-05-12T11:29:36.354Z,4.40
2023-05-12T11:32:10.899Z,4.30
2023-05-12T11:34:44.170Z,4.00
2023-05-12T11:37:21.521Z,4.10
2023-05-12T11:39:55.093Z,3.80
2023-05-12T11:42:28.690Z,3.30
2023-05-12T11:45:02.033Z,4.30
2023-05-12T11:47:35.379Z,3.70
2023-05-12T11:50:11.056Z,3.40
2023-05-12T11:52:44.327Z,4.20
2023-05-12T11:55:24.494Z,3.70
2023-05-12T11:58:03.386Z,3.70
2023-05-12T12:00:37.824Z,4.20
2023-05-12T12:03:17.209Z,4.30
2023-05-12T12:06:02.641Z,4.40
2023-05-12T12:08:39.124Z,3.90
2023-05-12T12:11:12.447Z,3.70
2023-05-12T12:13:58.058Z,2.80
2023-05-12T12:16:32.362Z,2.90
2023-05-12T12:19:06.429Z,3.70
2023-05-12T12:21:46.916Z,3.80
2023-05-12T12:24:21.798Z,3.90
2023-05-12T12:26:55.939Z,4.20
2023-05-12T12:29:29.369Z,4.40
2023-05-12T12:32:02.723Z,3.60
2023-05-12T12:34:36.426Z,3.60
2023-05-12T12:37:09.890Z,3.90
2023-05-12T12:39:43.231Z,3.70
2023-05-12T12:42:16.955Z,4.30
2023-05-12T12:44:50.833Z,3.70
2023-05-12T12:47:24.765Z,3.60
2023-05-12T12:49:58.179Z,3.50
2023-05-12T12:52:33.025Z,4.00
2023-05-12T12:55:06.831Z,4.00
2023-05-12T12:57:40.129Z,3.60
2023-05-12T13:00:15.771Z,3.70
2023-05-12T13:02:49.966Z,3.70
2023-05-12T13:05:23.903Z,3.60
2023-05-12T13:07:57.332Z,4.10
2023-05-12T13:10:30.854Z,3.40
2023-05-12T13:13:04.119Z,3.60
2023-05-12T13:15:37.419Z,3.40
2023-05-12T13:18:11.040Z,3.20
2023-05-12T13:20:44.934Z,3.50
2023-05-12T13:23:18.399Z,3.20
2023-05-12T13:25:52.394Z,3.60
2023-05-12T13:28:25.616Z,3.10
2023-05-12T13:30:59.179Z,3.10
2023-05-12T13:33:32.903Z,3.40
2023-05-12T13:36:06.519Z,3.40
2023-05-12T13:38:40.094Z,2.30
2023-05-12T13:41:13.657Z,2.80
2023-05-12T13:43:47.052Z,2.40
2023-05-12T13:46:20.735Z,4.20
2023-05-12T13:48:54.036Z,3.60
2023-05-12T13:51:27.585Z,3.50
2023-05-12T13:54:00.933Z,2.80
2023-05-12T13:56:34.202Z,2.80
2023-05-12T13:59:09.712Z,3.20
2023-05-12T14:01:44.575Z,3.00
2023-05-12T14:04:17.954Z,3.10
2023-05-12T14:06:51.450Z,3.30
2023-05-12T14:09:25.159Z,3.00
2023-05-12T14:11:59.418Z,3.10
2023-05-12T14:14:33.096Z,3.00
2023-05-12T14:17:06.906Z,3.30
2023-05-12T14:19:40.254Z,3.40
2023-05-12T14:22:25.338Z,2.80
2023-05-12T14:24:59.772Z,3.20
2023-05-12T14:27:33.302Z,2.70
2023-05-12T14:30:07.837Z,2.90
2023-05-12T14:32:41.329Z,3.10
2023-05-12T14:35:14.814Z,3.30
2023-05-12T14:37:48.223Z,2.90
2023-05-12T14:40:21.778Z,3.70
2023-05-12T14:42:55.622Z,2.60
2023-05-12T14:45:31.750Z,3.30
2023-05-12T14:50:38.247Z,3.30
2023-05-12T14:53:11.874Z,3.20
2023-05-12T14:55:45.972Z,3.50
2023-05-12T14:58:19.542Z,2.80
2023-05-12T15:00:53.601Z,3.30
2023-05-12T15:03:28.469Z,3.00
2023-05-12T15:06:06.277Z,2.90
2023-05-12T15:08:40.394Z,2.90
2023-05-12T15:11:13.776Z,2.50
2023-05-12T15:13:47.496Z,2.90
2023-05-12T15:16:21.288Z,3.10
2023-05-12T15:18:55.093Z,3.10
2023-05-12T15:21:28.468Z,2.50
2023-05-12T15:24:02.417Z,3.00
2023-05-12T15:26:36.809Z,3.20
2023-05-12T15:29:12.144Z,3.00
2023-05-12T15:31:45.456Z,3.20
2023-05-12T15:34:18.922Z,3.20
2023-05-12T15:36:52.950Z,3.90
2023-05-12T15:39:26.640Z,3.20
2023-05-12T15:42:00.461Z,2.90
2023-05-12T15:44:34.073Z,3.30
2023-05-12T15:47:08.082Z,3.60
2023-05-12T15:49:42.019Z,3.90
2023-05-12T15:52:15.485Z,3.80
2023-05-12T15:54:48.823Z,3.60
2023-05-12T15:57:22.466Z,3.70
2023-05-12T16:00:02.691Z,3.30
2023-05-12T16:02:46.419Z,3.70
2023-05-12T16:05:20.285Z,3.50
2023-05-12T16:07:54.986Z,3.50
2023-05-12T16:10:28.541Z,4.40
2023-05-12T16:13:01.851Z,4.00
2023-05-12T16:15:35.365Z,4.00
2023-05-12T16:18:11.404Z,3.70
2023-05-12T16:23:18.374Z,4.40
2023-05-12T16:25:51.823Z,3.70
2023-05-12T16:28:25.639Z,3.60
2023-05-12T16:30:58.949Z,3.30
2023-05-12T16:33:32.838Z,3.20
2023-05-12T16:36:06.721Z,3.30
2023-05-12T16:38:39.933Z,3.10
2023-05-12T16:41:15.479Z,4.10
2023-05-12T16:43:49.101Z,3.00
2023-05-12T16:46:22.843Z,5.40
2023-05-12T16:48:57.037Z,4.10
2023-05-12T16:51:33.383Z,5.20
2023-05-12T16:54:07.984Z,3.80
2023-05-12T16:56:41.500Z,4.20
2023-05-12T16:59:15.467Z,5.80
2023-05-12T17:01:49.068Z,7.90
2023-05-12T17:04:22.549Z,5.10
2023-05-12T17:06:56.123Z,3.40
2023-05-12T17:09:29.629Z,3.90
2023-05-12T17:12:04.829Z,3.60
2023-05-12T17:14:38.184Z,3.00
2023-05-12T17:17:12.452Z,3.50
2023-05-12T17:19:46.360Z,3.60
2023-05-12T17:22:19.981Z,3.50
2023-05-12T17:24:53.761Z,3.90
2023-05-12T17:27:27.250Z,3.30
2023-05-12T17:30:00.539Z,3.60
2023-05-12T17:32:34.311Z,3.60
2023-05-12T17:35:09.666Z,3.00
2023-05-12T17:37:43.185Z,3.40
2023-05-12T17:40:19.355Z,3.10
2023-05-12T17:42:52.760Z,3.20
2023-05-12T17:45:26.175Z,3.40
2023-05-12T17:47:59.633Z,3.40
2023-05-12T17:50:33.369Z,3.40
2023-05-12T17:53:11.034Z,3.60
2023-05-12T17:55:44.785Z,3.40
2023-05-12T17:58:18.336Z,3.20
2023-05-12T18:00:52.303Z,3.60
2023-05-12T18:03:25.850Z,3.50
2023-05-12T18:05:59.625Z,3.50
2023-05-12T18:08:33.269Z,3.50
2023-05-12T18:11:06.708Z,3.60
2023-05-12T18:13:40.309Z,3.90
2023-05-12T18:16:25.249Z,4.00
2023-05-12T18:19:02.955Z,4.60
2023-05-12T18:21:37.442Z,3.70
2023-05-12T18:24:11.271Z,4.20
2023-05-12T18:26:44.886Z,3.80
2023-05-12T18:29:18.546Z,4.20
2023-05-12T18:31:52.416Z,4.20
2023-05-12T18:34:26.161Z,4.20
2023-05-12T18:37:00.341Z,4.60
2023-05-12T18:39:34.455Z,3.90
2023-05-12T18:42:09.307Z,4.50
2023-05-12T18:44:44.864Z,4.50
2023-05-12T18:47:19.943Z,4.30
2023-05-12T18:49:54.195Z,4.20
2023-05-12T18:52:27.754Z,4.60
2023-05-12T18:55:01.306Z,4.20
2023-05-12T18:57:34.838Z,4.50
2023-05-12T19:00:11.272Z,4.40
2023-05-12T19:02:48.217Z,4.90
2023-05-12T19:05:23.474Z,5.10
2023-05-12T19:07:58.702Z,4.90
2023-05-12T19:10:32.965Z,4.80
2023-05-12T19:13:08.241Z,4.90
2023-05-12T19:15:42.505Z,6.00
2023-05-12T19:18:17.512Z,5.10
2023-05-12T19:20:51.683Z,5.10
2023-05-12T19:23:27.455Z,5.70
2023-05-12T19:26:02.855Z,5.90
2023-05-12T19:28:40.764Z,5.80
2023-05-12T19:31:15.161Z,5.60
2023-05-12T19:33:50.161Z,5.40
2023-05-12T19:36:24.756Z,5.70
2023-05-12T19:38:59.913Z,6.10
2023-05-12T19:41:34.885Z,5.30
2023-05-12T19:44:10.069Z,5.80
2023-05-12T19:46:45.132Z,5.90
2023-05-12T19:49:20.066Z,5.70
2023-05-12T19:51:54.477Z,5.20
2023-05-12T19:54:28.866Z,5.60
2023-05-12T19:57:04.382Z,5.60
2023-05-12T19:59:43.797Z,5.30
2023-05-12T20:02:18.657Z,5.20
2023-05-12T20:04:53.838Z,5.60
2023-05-12T20:07:27.719Z,5.50
2023-05-12T20:10:02.738Z,5.00
2023-05-12T20:12:36.605Z,5.70
2023-05-12T20:15:14.827Z,5.90
2023-05-12T20:17:49.954Z,5.80
2023-05-12T20:20:27.541Z,5.40
2023-05-12T20:23:02.817Z,5.10
2023-05-12T20:25:37.702Z,5.90
2023-05-12T20:28:15.178Z,6.30
2023-05-12T20:30:49.496Z,6.10
2023-05-12T20:33:22.915Z,5.80
2023-05-12T20:35:57.209Z,6.00
2023-05-12T20:38:31.504Z,5.60
2023-05-12T20:41:09.068Z,6.20
2023-05-12T20:43:42.755Z,5.80
2023-05-12T20:46:17.319Z,5.60
2023-05-12T20:48:52.754Z,6.40
2023-05-12T20:51:28.638Z,5.70
2023-05-12T20:54:03.875Z,6.20
2023-05-12T20:56:38.287Z,6.00
2023-05-12T20:59:12.084Z,5.70
2023-05-12T21:01:45.638Z,5.70
2023-05-12T21:04:19.230Z,6.10
2023-05-12T21:06:53.757Z,5.60
2023-05-12T21:09:28.863Z,6.40
2023-05-12T21:12:02.604Z,6.30
2023-05-12T21:14:41.335Z,6.40
2023-05-12T21:17:16.427Z,5.60
2023-05-12T21:19:49.897Z,5.90
2023-05-12T21:22:23.863Z,6.10
2023-05-12T21:24:58.094Z,5.80
2023-05-12T21:27:32.046Z,6.10
2023-05-12T21:30:06.373Z,6.40
2023-05-12T21:32:40.051Z,6.20
2023-05-12T21:35:13.558Z,6.20
2023-05-12T21:37:49.846Z,5.60
2023-05-12T21:40:23.695Z,6.40
2023-05-12T21:42:57.454Z,6.30
2023-05-12T21:45:30.941Z,5.90
2023-05-12T21:48:04.354Z,5.80
2023-05-12T21:50:38.029Z,6.00
2023-05-12T21:53:11.381Z,6.80
2023-05-12T21:55:45.454Z,6.70
2023-05-12T21:58:19.021Z,6.70
2023-05-12T22:00:53.009Z,5.60
2023-05-12T22:03:26.922Z,6.20
2023-05-12T22:06:00.585Z,6.20
2023-05-12T22:08:34.078Z,5.40
2023-05-12T22:11:07.787Z,6.60
2023-05-12T22:13:41.584Z,5.90
2023-05-12T22:16:14.937Z,6.20
2023-05-12T22:18:48.882Z,6.20
2023-05-12T22:21:22.389Z,6.30
2023-05-12T22:23:57.461Z,6.40
2023-05-12T22:26:31.415Z,6.90
2023-05-12T22:29:04.748Z,5.10
2023-05-12T22:31:38.552Z,6.00
2023-05-12T22:34:12.220Z,6.30
2023-05-12T22:36:46.065Z,6.40
2023-05-12T22:39:20.033Z,6.70
2023-05-12T22:41:53.257Z,6.50
2023-05-12T22:44:26.638Z,6.00
2023-05-12T22:46:59.750Z,6.80
2023-05-12T22:49:33.310Z,6.30
2023-05-12T22:52:06.983Z,6.10
2023-05-12T22:54:40.255Z,5.90
2023-05-12T22:57:13.745Z,6.60
2023-05-12T22:59:47.611Z,6.70
2023-05-12T23:02:21.283Z,6.50
2023-05-12T23:04:54.847Z,6.10
2023-05-12T23:07:28.468Z,6.90
2023-05-12T23:10:01.895Z,6.50
2023-05-12T23:12:34.877Z,6.90
2023-05-12T23:15:09.645Z,6.60
2023-05-12T23:17:43.285Z,6.50
2023-05-12T23:20:17.252Z,6.40
2023-05-12T23:22:50.421Z,5.90
2023-05-12T23:25:24.258Z,6.90
2023-05-12T23:27:57.858Z,6.20
2023-05-12T23:30:32.343Z,6.60
2023-05-12T23:33:06.086Z,6.90
2023-05-12T23:35:39.956Z,6.80
2023-05-12T23:38:13.160Z,6.40
2023-05-12T23:40:46.618Z,6.60
2023-05-12T23:43:20.174Z,7.20
2023-05-12T23:45:53.813Z,7.10
2023-05-12T23:48:27.548Z,7.10
2023-05-12T23:51:00.779Z,6.40
2023-05-12T23:53:33.866Z,7.20
2023-05-12T23:56:07.978Z,7.40
2023-05-12T23:58:41.395Z,7.20
